sensor_id;sensor_type;location;lat;lon;timestamp;temperature;humidity
16321;DHT22;8269;50.990;4.494;2023-05-14T00:00:14;12.20;99.90
16321;DHT22;8269;50.990;4.494;2023-05-14T00:02:40;12.30;99.90
16321;DHT22;8269;50.990;4.494;2023-05-14T00:05:07;12.20;99.90
16321;DHT22;8269;50.990;4.494;2023-05-14T00:07:33;12.20;99.90
16321;DHT22;8269;50.990;4.494;2023-05-14T00:09:59;12.20;99.90
16321;DHT22;8269;50.990;4.494;2023-05-14T00:12:27;12.20;99.90
16321;DHT22;8269;50.990;4.494;2023-05-14T00:14:54;12.20;99.90
16321;DHT22;8269;50.990;4.494;2023-05-14T00:17:20;12.10;99.90
16321;DHT22;8269;50.990;4.494;2023-05-14T00:19:50;12.00;99.90
16321;DHT22;8269;50.990;4.494;2023-05-14T00:22:15;11.90;99.90
16321;DHT22;8269;50.990;4.494;2023-05-14T00:24:41;11.80;99.90
16321;DHT22;8269;50.990;4.494;2023-05-14T00:27:07;11.80;99.90
16321;DHT22;8269;50.990;4.494;2023-05-14T00:29:33;11.80;99.90
16321;DHT22;8269;50.990;4.494;2023-05-14T00:31:58;11.90;99.90
16321;DHT22;8269;50.990;4.494;2023-05-14T00:34:24;11.90;99.90
16321;DHT22;8269;50.990;4.494;2023-05-14T00:36:50;11.80;99.90
16321;DHT22;8269;50.990;4.494;2023-05-14T00:39:16;11.70;99.90
16321;DHT22;8269;50.990;4.494;2023-05-14T00:41:41;11.80;99.90
16321;DHT22;8269;50.990;4.494;2023-05-14T00:44:07;11.70;99.90
16321;DHT22;8269;50.990;4.494;2023-05-14T00:46:33;11.70;99.90
16321;DHT22;8269;50.990;4.494;2023-05-14T00:48:58;11.70;99.90
16321;DHT22;8269;50.990;4.494;2023-05-14T00:51:24;11.70;99.90
16321;DHT22;8269;50.990;4.494;2023-05-14T00:53:51;11.70;99.90
16321;DHT22;8269;50.990;4.494;2023-05-14T00:56:18;11.80;99.90
16321;DHT22;8269;50.990;4.494;2023-05-14T00:58:43;11.80;99.90
16321;DHT22;8269;50.990;4.494;2023-05-14T01:01:09;11.80;99.90
16321;DHT22;8269;50.990;4.494;2023-05-14T01:03:36;11.80;99.90
16321;DHT22;8269;50.990;4.494;2023-05-14T01:06:19;11.70;99.90
16321;DHT22;8269;50.990;4.494;2023-05-14T01:09:05;11.70;99.90
16321;DHT22;8269;50.990;4.494;2023-05-14T01:11:51;11.70;99.90
16321;DHT22;8269;50.990;4.494;2023-05-14T01:15:00;11.70;99.90
16321;DHT22;8269;50.990;4.494;2023-05-14T01:17:28;11.70;99.90
16321;DHT22;8269;50.990;4.494;2023-05-14T01:19:57;11.60;99.90
16321;DHT22;8269;50.990;4.494;2023-05-14T01:22:23;11.60;99.90
16321;DHT22;8269;50.990;4.494;2023-05-14T01:24:49;11.50;99.90
16321;DHT22;8269;50.990;4.494;2023-05-14T01:27:31;11.50;99.90
16321;DHT22;8269;50.990;4.494;2023-05-14T01:30:12;11.50;99.90
16321;DHT22;8269;50.990;4.494;2023-05-14T01:32:40;11.50;99.90
16321;DHT22;8269;50.990;4.494;2023-05-14T01:35:09;11.50;99.90
16321;DHT22;8269;50.990;4.494;2023-05-14T01:37:35;11.40;99.90
16321;DHT22;8269;50.990;4.494;2023-05-14T01:40:03;11.40;99.90
16321;DHT22;8269;50.990;4.494;2023-05-14T01:42:30;11.40;99.90
16321;DHT22;8269;50.990;4.494;2023-05-14T01:44:55;11.50;99.90
16321;DHT22;8269;50.990;4.494;2023-05-14T01:47:22;11.50;99.90
16321;DHT22;8269;50.990;4.494;2023-05-14T01:49:48;11.40;99.90
16321;DHT22;8269;50.990;4.494;2023-05-14T01:52:14;11.40;99.90
16321;DHT22;8269;50.990;4.494;2023-05-14T01:54:39;11.40;99.90
16321;DHT22;8269;50.990;4.494;2023-05-14T01:57:06;11.40;99.90
16321;DHT22;8269;50.990;4.494;2023-05-14T01:59:31;11.40;99.90
16321;DHT22;8269;50.990;4.494;2023-05-14T02:01:57;11.40;99.90
16321;DHT22;8269;50.990;4.494;2023-05-14T02:04:22;11.30;99.90
16321;DHT22;8269;50.990;4.494;2023-05-14T02:06:48;11.30;99.90
16321;DHT22;8269;50.990;4.494;2023-05-14T02:09:14;11.30;99.90
16321;DHT22;8269;50.990;4.494;2023-05-14T02:11:40;11.30;99.90
16321;DHT22;8269;50.990;4.494;2023-05-14T02:14:05;11.30;99.90
16321;DHT22;8269;50.990;4.494;2023-05-14T02:16:31;11.30;99.90
16321;DHT22;8269;50.990;4.494;2023-05-14T02:18:56;11.30;99.90
16321;DHT22;8269;50.990;4.494;2023-05-14T02:21:22;11.40;99.90
16321;DHT22;8269;50.990;4.494;2023-05-14T02:23:48;11.40;99.90
16321;DHT22;8269;50.990;4.494;2023-05-14T02:26:14;11.40;99.90
16321;DHT22;8269;50.990;4.494;2023-05-14T02:28:40;11.50;99.90
16321;DHT22;8269;50.990;4.494;2023-05-14T02:31:05;11.50;99.90
16321;DHT22;8269;50.990;4.494;2023-05-14T02:33:31;11.50;99.90
16321;DHT22;8269;50.990;4.494;2023-05-14T02:35:57;11.50;99.90
16321;DHT22;8269;50.990;4.494;2023-05-14T02:38:23;11.50;99.90
16321;DHT22;8269;50.990;4.494;2023-05-14T02:40:49;11.60;99.90
16321;DHT22;8269;50.990;4.494;2023-05-14T02:43:14;11.60;99.90
16321;DHT22;8269;50.990;4.494;2023-05-14T02:45:40;11.60;99.90
16321;DHT22;8269;50.990;4.494;2023-05-14T02:48:05;11.60;99.90
16321;DHT22;8269;50.990;4.494;2023-05-14T02:50:31;11.60;99.90
16321;DHT22;8269;50.990;4.494;2023-05-14T02:52:57;11.50;99.90
16321;DHT22;8269;50.990;4.494;2023-05-14T02:55:22;11.60;99.90
16321;DHT22;8269;50.990;4.494;2023-05-14T02:57:51;11.50;99.90
16321;DHT22;8269;50.990;4.494;2023-05-14T03:00:17;11.50;99.90
16321;DHT22;8269;50.990;4.494;2023-05-14T03:02:44;11.60;99.90
16321;DHT22;8269;50.990;4.494;2023-05-14T03:05:10;11.60;99.90
16321;DHT22;8269;50.990;4.494;2023-05-14T03:07:36;11.50;99.90
16321;DHT22;8269;50.990;4.494;2023-05-14T03:10:02;11.60;99.90
16321;DHT22;8269;50.990;4.494;2023-05-14T03:12:28;11.50;99.90
16321;DHT22;8269;50.990;4.494;2023-05-14T03:14:54;11.60;99.90
16321;DHT22;8269;50.990;4.494;2023-05-14T03:17:19;11.60;99.90
16321;DHT22;8269;50.990;4.494;2023-05-14T03:19:45;11.60;99.90
16321;DHT22;8269;50.990;4.494;2023-05-14T03:22:11;11.50;99.90
16321;DHT22;8269;50.990;4.494;2023-05-14T03:24:38;11.50;99.90
16321;DHT22;8269;50.990;4.494;2023-05-14T03:27:04;11.50;99.90
16321;DHT22;8269;50.990;4.494;2023-05-14T03:29:30;11.50;99.90
16321;DHT22;8269;50.990;4.494;2023-05-14T03:31:56;11.50;99.90
16321;DHT22;8269;50.990;4.494;2023-05-14T03:34:21;11.50;99.90
16321;DHT22;8269;50.990;4.494;2023-05-14T03:36:47;11.50;99.90
16321;DHT22;8269;50.990;4.494;2023-05-14T03:39:13;11.60;99.90
16321;DHT22;8269;50.990;4.494;2023-05-14T03:41:46;11.50;99.90
16321;DHT22;8269;50.990;4.494;2023-05-14T03:44:12;11.60;99.90
16321;DHT22;8269;50.990;4.494;2023-05-14T03:46:38;11.50;99.90
16321;DHT22;8269;50.990;4.494;2023-05-14T03:49:06;11.50;99.90
16321;DHT22;8269;50.990;4.494;2023-05-14T03:51:32;11.50;99.90
16321;DHT22;8269;50.990;4.494;2023-05-14T03:53:58;11.50;99.90
16321;DHT22;8269;50.990;4.494;2023-05-14T03:56:28;11.50;99.90
16321;DHT22;8269;50.990;4.494;2023-05-14T03:58:56;11.50;99.90
16321;DHT22;8269;50.990;4.494;2023-05-14T04:01:22;11.60;99.90
16321;DHT22;8269;50.990;4.494;2023-05-14T04:03:47;11.60;99.90
16321;DHT22;8269;50.990;4.494;2023-05-14T04:06:13;11.60;99.90
16321;DHT22;8269;50.990;4.494;2023-05-14T04:08:40;11.70;99.90
16321;DHT22;8269;50.990;4.494;2023-05-14T04:11:05;11.70;99.90
16321;DHT22;8269;50.990;4.494;2023-05-14T04:13:31;11.60;99.90
16321;DHT22;8269;50.990;4.494;2023-05-14T04:15:57;11.70;99.90
16321;DHT22;8269;50.990;4.494;2023-05-14T04:18:22;11.70;99.90
16321;DHT22;8269;50.990;4.494;2023-05-14T04:20:48;11.60;99.90
16321;DHT22;8269;50.990;4.494;2023-05-14T04:23:13;11.60;99.90
16321;DHT22;8269;50.990;4.494;2023-05-14T04:25:39;11.60;99.90
16321;DHT22;8269;50.990;4.494;2023-05-14T04:28:05;11.50;99.90
16321;DHT22;8269;50.990;4.494;2023-05-14T04:30:30;11.60;99.90
16321;DHT22;8269;50.990;4.494;2023-05-14T04:32:56;11.60;99.90
16321;DHT22;8269;50.990;4.494;2023-05-14T04:35:21;11.70;99.90
16321;DHT22;8269;50.990;4.494;2023-05-14T04:37:47;11.70;99.90
16321;DHT22;8269;50.990;4.494;2023-05-14T04:40:14;11.80;99.90
16321;DHT22;8269;50.990;4.494;2023-05-14T04:42:42;11.80;99.90
16321;DHT22;8269;50.990;4.494;2023-05-14T04:45:09;11.80;99.90
16321;DHT22;8269;50.990;4.494;2023-05-14T04:47:35;11.60;99.90
16321;DHT22;8269;50.990;4.494;2023-05-14T04:50:00;11.60;99.90
16321;DHT22;8269;50.990;4.494;2023-05-14T04:52:27;11.60;99.90
16321;DHT22;8269;50.990;4.494;2023-05-14T04:54:52;11.60;99.90
16321;DHT22;8269;50.990;4.494;2023-05-14T04:57:18;11.60;99.90
16321;DHT22;8269;50.990;4.494;2023-05-14T04:59:44;11.60;99.90
16321;DHT22;8269;50.990;4.494;2023-05-14T05:02:10;11.60;99.90
16321;DHT22;8269;50.990;4.494;2023-05-14T05:04:36;11.70;99.90
16321;DHT22;8269;50.990;4.494;2023-05-14T05:07:01;11.70;99.90
16321;DHT22;8269;50.990;4.494;2023-05-14T05:09:27;11.80;99.90
16321;DHT22;8269;50.990;4.494;2023-05-14T05:11:53;11.80;99.90
16321;DHT22;8269;50.990;4.494;2023-05-14T05:14:18;11.90;99.90
16321;DHT22;8269;50.990;4.494;2023-05-14T05:16:46;11.80;99.90
16321;DHT22;8269;50.990;4.494;2023-05-14T05:19:12;11.80;99.90
16321;DHT22;8269;50.990;4.494;2023-05-14T05:21:37;11.80;99.90
16321;DHT22;8269;50.990;4.494;2023-05-14T05:24:06;11.90;99.90
16321;DHT22;8269;50.990;4.494;2023-05-14T05:26:31;12.00;99.90
16321;DHT22;8269;50.990;4.494;2023-05-14T05:28:57;11.90;99.90
16321;DHT22;8269;50.990;4.494;2023-05-14T05:31:23;12.00;99.90
16321;DHT22;8269;50.990;4.494;2023-05-14T05:33:49;12.00;99.90
16321;DHT22;8269;50.990;4.494;2023-05-14T05:36:14;12.10;99.90
16321;DHT22;8269;50.990;4.494;2023-05-14T05:38:40;12.20;99.90
16321;DHT22;8269;50.990;4.494;2023-05-14T05:41:05;12.30;99.90
16321;DHT22;8269;50.990;4.494;2023-05-14T05:43:31;12.20;99.90
16321;DHT22;8269;50.990;4.494;2023-05-14T05:45:59;12.20;99.90
16321;DHT22;8269;50.990;4.494;2023-05-14T05:48:25;12.20;99.90
16321;DHT22;8269;50.990;4.494;2023-05-14T05:50:50;12.10;99.90
16321;DHT22;8269;50.990;4.494;2023-05-14T05:53:16;12.20;99.90
16321;DHT22;8269;50.990;4.494;2023-05-14T05:55:42;12.10;99.90
16321;DHT22;8269;50.990;4.494;2023-05-14T05:58:08;12.30;99.90
16321;DHT22;8269;50.990;4.494;2023-05-14T06:00:34;12.40;99.90
16321;DHT22;8269;50.990;4.494;2023-05-14T06:03:00;12.30;99.90
16321;DHT22;8269;50.990;4.494;2023-05-14T06:05:25;12.30;99.90
16321;DHT22;8269;50.990;4.494;2023-05-14T06:07:51;12.30;99.90
16321;DHT22;8269;50.990;4.494;2023-05-14T06:10:19;12.40;99.90
16321;DHT22;8269;50.990;4.494;2023-05-14T06:12:45;12.40;99.90
16321;DHT22;8269;50.990;4.494;2023-05-14T06:15:11;12.40;99.90
16321;DHT22;8269;50.990;4.494;2023-05-14T06:17:37;12.40;99.90
16321;DHT22;8269;50.990;4.494;2023-05-14T06:20:03;12.40;99.90
16321;DHT22;8269;50.990;4.494;2023-05-14T06:22:32;12.50;99.90
16321;DHT22;8269;50.990;4.494;2023-05-14T06:24:58;12.70;99.90
16321;DHT22;8269;50.990;4.494;2023-05-14T06:27:24;12.60;99.90
16321;DHT22;8269;50.990;4.494;2023-05-14T06:29:49;12.60;99.90
16321;DHT22;8269;50.990;4.494;2023-05-14T06:32:15;12.60;99.90
16321;DHT22;8269;50.990;4.494;2023-05-14T06:34:42;12.50;99.90
16321;DHT22;8269;50.990;4.494;2023-05-14T06:37:08;12.50;99.90
16321;DHT22;8269;50.990;4.494;2023-05-14T06:39:35;12.50;99.90
16321;DHT22;8269;50.990;4.494;2023-05-14T06:42:01;12.40;99.90
16321;DHT22;8269;50.990;4.494;2023-05-14T06:44:27;12.50;99.90
16321;DHT22;8269;50.990;4.494;2023-05-14T06:46:53;12.60;99.90
16321;DHT22;8269;50.990;4.494;2023-05-14T06:49:19;12.70;99.90
16321;DHT22;8269;50.990;4.494;2023-05-14T06:51:45;12.80;99.90
16321;DHT22;8269;50.990;4.494;2023-05-14T06:54:11;12.80;99.90
16321;DHT22;8269;50.990;4.494;2023-05-14T06:56:37;12.80;99.90
16321;DHT22;8269;50.990;4.494;2023-05-14T06:59:03;12.90;99.90
16321;DHT22;8269;50.990;4.494;2023-05-14T07:01:28;13.10;99.90
16321;DHT22;8269;50.990;4.494;2023-05-14T07:03:55;13.00;99.90
16321;DHT22;8269;50.990;4.494;2023-05-14T07:06:21;13.10;99.90
16321;DHT22;8269;50.990;4.494;2023-05-14T07:08:47;13.20;99.90
16321;DHT22;8269;50.990;4.494;2023-05-14T07:11:12;13.40;99.90
16321;DHT22;8269;50.990;4.494;2023-05-14T07:13:39;13.50;99.90
16321;DHT22;8269;50.990;4.494;2023-05-14T07:16:06;13.40;99.90
16321;DHT22;8269;50.990;4.494;2023-05-14T07:18:31;13.40;99.90
16321;DHT22;8269;50.990;4.494;2023-05-14T07:20:57;13.50;99.90
16321;DHT22;8269;50.990;4.494;2023-05-14T07:23:23;13.40;99.90
16321;DHT22;8269;50.990;4.494;2023-05-14T07:25:48;13.50;99.90
16321;DHT22;8269;50.990;4.494;2023-05-14T07:28:14;13.60;99.90
16321;DHT22;8269;50.990;4.494;2023-05-14T07:30:40;13.70;99.90
16321;DHT22;8269;50.990;4.494;2023-05-14T07:33:06;13.80;99.90
16321;DHT22;8269;50.990;4.494;2023-05-14T07:35:31;14.00;99.90
16321;DHT22;8269;50.990;4.494;2023-05-14T07:37:57;13.90;99.90
16321;DHT22;8269;50.990;4.494;2023-05-14T07:40:23;14.00;99.90
16321;DHT22;8269;50.990;4.494;2023-05-14T07:42:49;14.00;99.90
16321;DHT22;8269;50.990;4.494;2023-05-14T07:45:16;14.30;99.90
16321;DHT22;8269;50.990;4.494;2023-05-14T07:47:41;14.50;99.90
16321;DHT22;8269;50.990;4.494;2023-05-14T07:50:07;14.50;99.90
16321;DHT22;8269;50.990;4.494;2023-05-14T07:52:33;14.40;99.90
16321;DHT22;8269;50.990;4.494;2023-05-14T07:54:59;14.50;99.90
16321;DHT22;8269;50.990;4.494;2023-05-14T07:57:26;14.50;99.90
16321;DHT22;8269;50.990;4.494;2023-05-14T07:59:52;14.40;99.90
16321;DHT22;8269;50.990;4.494;2023-05-14T08:02:17;14.20;99.90
16321;DHT22;8269;50.990;4.494;2023-05-14T08:04:44;14.10;99.90
16321;DHT22;8269;50.990;4.494;2023-05-14T08:07:11;13.90;99.90
16321;DHT22;8269;50.990;4.494;2023-05-14T08:09:37;13.80;99.90
16321;DHT22;8269;50.990;4.494;2023-05-14T08:12:02;14.00;99.90
16321;DHT22;8269;50.990;4.494;2023-05-14T08:14:28;14.10;99.90
16321;DHT22;8269;50.990;4.494;2023-05-14T08:16:54;14.30;99.90
16321;DHT22;8269;50.990;4.494;2023-05-14T08:19:19;14.20;99.90
16321;DHT22;8269;50.990;4.494;2023-05-14T08:21:45;14.00;99.90
16321;DHT22;8269;50.990;4.494;2023-05-14T08:24:11;14.00;99.90
16321;DHT22;8269;50.990;4.494;2023-05-14T08:26:36;14.10;99.90
16321;DHT22;8269;50.990;4.494;2023-05-14T08:29:03;14.30;99.90
16321;DHT22;8269;50.990;4.494;2023-05-14T08:31:29;14.30;99.90
16321;DHT22;8269;50.990;4.494;2023-05-14T08:33:55;14.30;99.90
16321;DHT22;8269;50.990;4.494;2023-05-14T08:36:21;14.40;99.90
16321;DHT22;8269;50.990;4.494;2023-05-14T08:38:46;14.60;99.90
16321;DHT22;8269;50.990;4.494;2023-05-14T08:43:52;15.10;99.90
16321;DHT22;8269;50.990;4.494;2023-05-14T08:46:23;15.10;99.90
16321;DHT22;8269;50.990;4.494;2023-05-14T08:48:54;15.10;99.90
16321;DHT22;8269;50.990;4.494;2023-05-14T08:51:22;15.20;99.90
16321;DHT22;8269;50.990;4.494;2023-05-14T08:53:47;15.30;99.90
16321;DHT22;8269;50.990;4.494;2023-05-14T08:56:15;15.70;99.90
16321;DHT22;8269;50.990;4.494;2023-05-14T08:58:42;15.90;99.90
16321;DHT22;8269;50.990;4.494;2023-05-14T09:01:07;16.20;99.90
16321;DHT22;8269;50.990;4.494;2023-05-14T09:06:01;17.10;99.90
16321;DHT22;8269;50.990;4.494;2023-05-14T09:08:27;17.10;99.90
16321;DHT22;8269;50.990;4.494;2023-05-14T09:10:53;17.20;99.90
16321;DHT22;8269;50.990;4.494;2023-05-14T09:13:19;17.10;99.90
16321;DHT22;8269;50.990;4.494;2023-05-14T09:15:45;17.10;99.90
16321;DHT22;8269;50.990;4.494;2023-05-14T09:18:12;16.60;99.90
16321;DHT22;8269;50.990;4.494;2023-05-14T09:20:38;16.80;99.90
16321;DHT22;8269;50.990;4.494;2023-05-14T09:23:04;16.90;99.90
16321;DHT22;8269;50.990;4.494;2023-05-14T09:25:33;17.10;99.90
16321;DHT22;8269;50.990;4.494;2023-05-14T09:27:58;17.10;99.90
16321;DHT22;8269;50.990;4.494;2023-05-14T09:30:24;16.90;99.90
16321;DHT22;8269;50.990;4.494;2023-05-14T09:32:52;16.90;99.90
16321;DHT22;8269;50.990;4.494;2023-05-14T09:35:23;17.20;99.90
16321;DHT22;8269;50.990;4.494;2023-05-14T09:37:50;17.30;99.90
16321;DHT22;8269;50.990;4.494;2023-05-14T09:40:18;17.30;99.90
16321;DHT22;8269;50.990;4.494;2023-05-14T09:42:44;17.40;99.90
16321;DHT22;8269;50.990;4.494;2023-05-14T09:45:10;17.60;99.90
16321;DHT22;8269;50.990;4.494;2023-05-14T09:47:37;17.60;99.90
16321;DHT22;8269;50.990;4.494;2023-05-14T09:50:05;17.40;99.90
16321;DHT22;8269;50.990;4.494;2023-05-14T09:52:32;17.60;99.90
16321;DHT22;8269;50.990;4.494;2023-05-14T09:54:59;17.70;99.90
16321;DHT22;8269;50.990;4.494;2023-05-14T09:57:25;17.90;99.90
16321;DHT22;8269;50.990;4.494;2023-05-14T09:59:51;18.00;99.90
16321;DHT22;8269;50.990;4.494;2023-05-14T10:04:49;18.00;99.90
16321;DHT22;8269;50.990;4.494;2023-05-14T10:07:19;18.00;99.90
16321;DHT22;8269;50.990;4.494;2023-05-14T10:09:46;18.10;99.90
16321;DHT22;8269;50.990;4.494;2023-05-14T10:12:13;18.00;99.90
16321;DHT22;8269;50.990;4.494;2023-05-14T10:14:46;18.20;99.90
16321;DHT22;8269;50.990;4.494;2023-05-14T10:17:15;18.00;99.90
16321;DHT22;8269;50.990;4.494;2023-05-14T10:19:49;17.80;99.90
16321;DHT22;8269;50.990;4.494;2023-05-14T10:22:18;17.90;99.90
16321;DHT22;8269;50.990;4.494;2023-05-14T10:24:47;18.00;99.90
16321;DHT22;8269;50.990;4.494;2023-05-14T10:27:18;18.00;99.90
16321;DHT22;8269;50.990;4.494;2023-05-14T10:29:53;18.10;99.90
16321;DHT22;8269;50.990;4.494;2023-05-14T10:32:20;18.30;99.90
16321;DHT22;8269;50.990;4.494;2023-05-14T10:34:46;18.40;99.90
16321;DHT22;8269;50.990;4.494;2023-05-14T10:37:21;18.50;99.90
16321;DHT22;8269;50.990;4.494;2023-05-14T10:40:01;18.50;99.90
16321;DHT22;8269;50.990;4.494;2023-05-14T10:42:35;18.10;99.90
16321;DHT22;8269;50.990;4.494;2023-05-14T10:45:06;18.10;99.90
16321;DHT22;8269;50.990;4.494;2023-05-14T10:47:37;18.10;99.90
16321;DHT22;8269;50.990;4.494;2023-05-14T10:50:08;18.40;99.90
16321;DHT22;8269;50.990;4.494;2023-05-14T10:52:35;18.40;99.90
16321;DHT22;8269;50.990;4.494;2023-05-14T10:55:05;18.60;99.90
16321;DHT22;8269;50.990;4.494;2023-05-14T10:57:37;18.80;99.90
16321;DHT22;8269;50.990;4.494;2023-05-14T11:00:05;18.80;99.90
16321;DHT22;8269;50.990;4.494;2023-05-14T11:02:39;18.80;99.90
16321;DHT22;8269;50.990;4.494;2023-05-14T11:05:09;18.90;99.90
16321;DHT22;8269;50.990;4.494;2023-05-14T11:07:56;18.90;99.90
16321;DHT22;8269;50.990;4.494;2023-05-14T11:10:22;18.80;99.90
16321;DHT22;8269;50.990;4.494;2023-05-14T11:12:50;18.70;99.90
16321;DHT22;8269;50.990;4.494;2023-05-14T11:15:19;18.70;99.90
16321;DHT22;8269;50.990;4.494;2023-05-14T11:17:46;18.90;99.90
16321;DHT22;8269;50.990;4.494;2023-05-14T11:20:13;19.00;99.90
16321;DHT22;8269;50.990;4.494;2023-05-14T11:22:41;19.00;99.90
16321;DHT22;8269;50.990;4.494;2023-05-14T11:25:08;19.00;99.90
16321;DHT22;8269;50.990;4.494;2023-05-14T11:27:36;18.60;99.90
16321;DHT22;8269;50.990;4.494;2023-05-14T11:30:02;18.80;99.90
16321;DHT22;8269;50.990;4.494;2023-05-14T11:32:33;18.90;99.90
16321;DHT22;8269;50.990;4.494;2023-05-14T11:34:59;19.00;99.90
16321;DHT22;8269;50.990;4.494;2023-05-14T11:37:24;18.90;99.90
16321;DHT22;8269;50.990;4.494;2023-05-14T11:39:52;18.90;99.90
16321;DHT22;8269;50.990;4.494;2023-05-14T11:42:18;19.00;99.90
16321;DHT22;8269;50.990;4.494;2023-05-14T11:44:46;19.20;99.90
16321;DHT22;8269;50.990;4.494;2023-05-14T11:47:13;19.00;99.90
16321;DHT22;8269;50.990;4.494;2023-05-14T11:49:39;19.20;99.90
16321;DHT22;8269;50.990;4.494;2023-05-14T11:52:06;19.30;99.90
16321;DHT22;8269;50.990;4.494;2023-05-14T11:54:33;19.10;99.90
16321;DHT22;8269;50.990;4.494;2023-05-14T11:57:02;19.00;99.90
16321;DHT22;8269;50.990;4.494;2023-05-14T11:59:31;18.90;99.90
16321;DHT22;8269;50.990;4.494;2023-05-14T12:01:57;18.90;99.90
16321;DHT22;8269;50.990;4.494;2023-05-14T12:04:23;19.00;99.90
16321;DHT22;8269;50.990;4.494;2023-05-14T12:06:50;19.10;99.90
16321;DHT22;8269;50.990;4.494;2023-05-14T12:09:20;19.30;99.90
16321;DHT22;8269;50.990;4.494;2023-05-14T12:11:47;19.40;99.90
16321;DHT22;8269;50.990;4.494;2023-05-14T12:16:45;19.50;99.90
16321;DHT22;8269;50.990;4.494;2023-05-14T12:19:14;19.50;99.90
16321;DHT22;8269;50.990;4.494;2023-05-14T12:21:42;19.50;99.90
16321;DHT22;8269;50.990;4.494;2023-05-14T12:24:16;19.70;99.90
16321;DHT22;8269;50.990;4.494;2023-05-14T12:26:49;19.80;99.90
16321;DHT22;8269;50.990;4.494;2023-05-14T12:29:15;20.00;99.90
16321;DHT22;8269;50.990;4.494;2023-05-14T12:31:46;20.10;99.90
16321;DHT22;8269;50.990;4.494;2023-05-14T12:34:12;20.20;99.90
16321;DHT22;8269;50.990;4.494;2023-05-14T12:36:38;20.30;99.90
16321;DHT22;8269;50.990;4.494;2023-05-14T12:39:04;20.30;99.90
16321;DHT22;8269;50.990;4.494;2023-05-14T12:41:30;20.50;99.90
16321;DHT22;8269;50.990;4.494;2023-05-14T12:43:56;20.60;99.90
16321;DHT22;8269;50.990;4.494;2023-05-14T12:46:22;20.60;99.90
16321;DHT22;8269;50.990;4.494;2023-05-14T12:48:48;20.70;99.90
16321;DHT22;8269;50.990;4.494;2023-05-14T12:51:14;20.60;99.90
16321;DHT22;8269;50.990;4.494;2023-05-14T12:53:39;20.30;99.90
16321;DHT22;8269;50.990;4.494;2023-05-14T12:56:05;20.20;99.90
16321;DHT22;8269;50.990;4.494;2023-05-14T12:58:31;20.00;99.90
16321;DHT22;8269;50.990;4.494;2023-05-14T13:00:57;20.10;99.90
16321;DHT22;8269;50.990;4.494;2023-05-14T13:03:24;20.30;99.90
16321;DHT22;8269;50.990;4.494;2023-05-14T13:05:51;20.30;99.90
16321;DHT22;8269;50.990;4.494;2023-05-14T13:08:17;20.40;99.90
16321;DHT22;8269;50.990;4.494;2023-05-14T13:10:46;20.70;99.90
16321;DHT22;8269;50.990;4.494;2023-05-14T13:13:15;20.70;99.90
16321;DHT22;8269;50.990;4.494;2023-05-14T13:15:41;20.40;99.90
16321;DHT22;8269;50.990;4.494;2023-05-14T13:18:07;20.40;99.90
16321;DHT22;8269;50.990;4.494;2023-05-14T13:20:33;20.60;99.90
16321;DHT22;8269;50.990;4.494;2023-05-14T13:22:59;20.70;99.90
16321;DHT22;8269;50.990;4.494;2023-05-14T13:25:25;20.80;99.90
16321;DHT22;8269;50.990;4.494;2023-05-14T13:27:52;20.70;99.90
16321;DHT22;8269;50.990;4.494;2023-05-14T13:30:18;20.70;99.90
16321;DHT22;8269;50.990;4.494;2023-05-14T13:32:43;20.70;99.90
16321;DHT22;8269;50.990;4.494;2023-05-14T13:35:09;20.90;99.90
16321;DHT22;8269;50.990;4.494;2023-05-14T13:37:35;21.10;99.90
16321;DHT22;8269;50.990;4.494;2023-05-14T13:40:01;21.30;99.90
16321;DHT22;8269;50.990;4.494;2023-05-14T13:42:29;21.40;99.90
16321;DHT22;8269;50.990;4.494;2023-05-14T13:44:56;21.40;99.90
16321;DHT22;8269;50.990;4.494;2023-05-14T13:47:22;21.40;99.90
16321;DHT22;8269;50.990;4.494;2023-05-14T13:49:47;21.30;99.90
16321;DHT22;8269;50.990;4.494;2023-05-14T13:52:13;21.40;99.90
16321;DHT22;8269;50.990;4.494;2023-05-14T13:54:39;21.20;99.90
16321;DHT22;8269;50.990;4.494;2023-05-14T13:57:04;21.40;99.90
16321;DHT22;8269;50.990;4.494;2023-05-14T13:59:30;21.50;99.90
16321;DHT22;8269;50.990;4.494;2023-05-14T14:01:56;21.60;99.90
16321;DHT22;8269;50.990;4.494;2023-05-14T14:04:21;21.50;99.90
16321;DHT22;8269;50.990;4.494;2023-05-14T14:06:48;21.60;99.90
16321;DHT22;8269;50.990;4.494;2023-05-14T14:09:14;21.80;99.90
16321;DHT22;8269;50.990;4.494;2023-05-14T14:11:40;21.70;99.90
16321;DHT22;8269;50.990;4.494;2023-05-14T14:14:05;21.50;99.90
16321;DHT22;8269;50.990;4.494;2023-05-14T14:16:31;21.60;99.90
16321;DHT22;8269;50.990;4.494;2023-05-14T14:18:57;21.80;99.90
16321;DHT22;8269;50.990;4.494;2023-05-14T14:21:24;21.60;99.90
16321;DHT22;8269;50.990;4.494;2023-05-14T14:23:50;21.50;99.90
16321;DHT22;8269;50.990;4.494;2023-05-14T14:26:16;21.50;99.90
16321;DHT22;8269;50.990;4.494;2023-05-14T14:28:41;21.40;99.90
16321;DHT22;8269;50.990;4.494;2023-05-14T14:31:07;21.30;99.90
16321;DHT22;8269;50.990;4.494;2023-05-14T14:33:33;21.40;99.90
16321;DHT22;8269;50.990;4.494;2023-05-14T14:35:59;21.30;99.90
16321;DHT22;8269;50.990;4.494;2023-05-14T14:38:24;21.20;99.90
16321;DHT22;8269;50.990;4.494;2023-05-14T14:40:50;21.00;99.90
16321;DHT22;8269;50.990;4.494;2023-05-14T14:43:16;21.10;99.90
16321;DHT22;8269;50.990;4.494;2023-05-14T14:45:41;21.10;99.90
16321;DHT22;8269;50.990;4.494;2023-05-14T14:48:32;21.20;99.90
16321;DHT22;8269;50.990;4.494;2023-05-14T14:51:02;21.30;99.90
16321;DHT22;8269;50.990;4.494;2023-05-14T14:53:29;21.20;99.90
16321;DHT22;8269;50.990;4.494;2023-05-14T14:55:55;21.10;99.90
16321;DHT22;8269;50.990;4.494;2023-05-14T14:58:21;21.20;99.90
16321;DHT22;8269;50.990;4.494;2023-05-14T15:00:50;21.20;99.90
16321;DHT22;8269;50.990;4.494;2023-05-14T15:03:17;21.30;99.90
16321;DHT22;8269;50.990;4.494;2023-05-14T15:05:42;21.40;99.90
16321;DHT22;8269;50.990;4.494;2023-05-14T15:08:08;21.30;99.90
16321;DHT22;8269;50.990;4.494;2023-05-14T15:10:34;21.40;99.90
16321;DHT22;8269;50.990;4.494;2023-05-14T15:13:03;21.10;99.90
16321;DHT22;8269;50.990;4.494;2023-05-14T15:15:29;21.00;99.90
16321;DHT22;8269;50.990;4.494;2023-05-14T15:17:56;20.90;99.90
16321;DHT22;8269;50.990;4.494;2023-05-14T15:20:22;20.60;99.90
16321;DHT22;8269;50.990;4.494;2023-05-14T15:22:47;20.50;99.90
16321;DHT22;8269;50.990;4.494;2023-05-14T15:25:17;20.50;99.90
16321;DHT22;8269;50.990;4.494;2023-05-14T15:27:43;20.40;99.90
16321;DHT22;8269;50.990;4.494;2023-05-14T15:30:09;20.50;99.90
16321;DHT22;8269;50.990;4.494;2023-05-14T15:32:40;20.40;99.90
16321;DHT22;8269;50.990;4.494;2023-05-14T15:35:06;20.30;99.90
16321;DHT22;8269;50.990;4.494;2023-05-14T15:37:39;20.20;99.90
16321;DHT22;8269;50.990;4.494;2023-05-14T15:40:06;20.00;99.90
16321;DHT22;8269;50.990;4.494;2023-05-14T15:42:39;19.80;99.90
16321;DHT22;8269;50.990;4.494;2023-05-14T15:45:12;19.70;99.90
16321;DHT22;8269;50.990;4.494;2023-05-14T15:47:38;19.40;99.90
16321;DHT22;8269;50.990;4.494;2023-05-14T15:50:05;19.50;99.90
16321;DHT22;8269;50.990;4.494;2023-05-14T15:52:30;19.40;99.90